createdAt,value
2018-01-04T00:00:19.468Z,7.79
2018-01-04T00:02:46.979Z,7.83
2018-01-04T00:05:14.522Z,7.75
2018-01-04T00:07:42.036Z,7.66
2018-01-04T00:10:09.597Z,7.66
2018-01-04T00:12:37.145Z,7.63
2018-01-04T00:15:04.662Z,7.59
2018-01-04T00:17:32.263Z,7.60
2018-01-04T00:19:59.768Z,7.56
2018-01-04T00:22:27.306Z,7.53
2018-01-04T00:24:54.841Z,7.50
2018-01-04T00:27:22.388Z,7.50
2018-01-04T00:29:49.897Z,7.50
2018-01-04T00:32:17.418Z,7.51
2018-01-04T00:34:44.926Z,7.50
2018-01-04T00:37:12.546Z,7.53
2018-01-04T00:39:40.088Z,7.46
2018-01-04T00:42:08.254Z,7.46
2018-01-04T00:44:35.847Z,7.44
2018-01-04T00:47:03.369Z,7.41
2018-01-04T00:49:30.944Z,7.38
2018-01-04T00:51:58.474Z,7.35
2018-01-04T00:54:26.009Z,7.33
2018-01-04T00:56:53.542Z,7.35
2018-01-04T00:59:21.079Z,7.33
2018-01-04T01:01:48.621Z,7.28
2018-01-04T01:04:16.205Z,7.33
2018-01-04T01:06:43.711Z,7.26
2018-01-04T01:09:11.237Z,7.27
2018-01-04T01:11:38.756Z,7.27
2018-01-04T01:14:06.316Z,7.24
2018-01-04T01:16:33.838Z,7.22
2018-01-04T01:19:01.369Z,7.14
2018-01-04T01:21:28.878Z,7.24
2018-01-04T01:23:56.418Z,7.20
2018-01-04T01:26:23.929Z,7.24
2018-01-04T01:28:51.433Z,7.19
2018-01-04T01:31:18.935Z,7.20
2018-01-04T01:33:46.454Z,7.22
2018-01-04T01:36:14.087Z,7.24
2018-01-04T01:38:41.598Z,7.27
2018-01-04T01:41:09.126Z,7.31
2018-01-04T01:43:36.637Z,7.31
2018-01-04T01:46:04.225Z,7.38
2018-01-04T01:48:31.733Z,7.36
2018-01-04T01:50:59.266Z,7.37
2018-01-04T01:53:26.771Z,7.39
2018-01-04T01:55:54.361Z,7.37
2018-01-04T01:58:21.872Z,7.36
2018-01-04T02:00:49.397Z,7.41
2018-01-04T02:03:16.905Z,7.42
2018-01-04T02:05:44.497Z,7.41
2018-01-04T02:08:12.061Z,7.43
2018-01-04T02:10:39.582Z,7.41
2018-01-04T02:13:07.177Z,7.43
2018-01-04T02:15:34.720Z,7.44
2018-01-04T02:18:14.183Z,7.44
2018-01-04T02:20:53.737Z,7.43
2018-01-04T02:23:33.270Z,7.41
2018-01-04T02:26:00.783Z,7.38
2018-01-04T02:28:40.260Z,7.35
2018-01-04T02:31:19.651Z,7.31
2018-01-04T02:33:59.034Z,7.24
2018-01-04T02:36:38.471Z,7.21
2018-01-04T02:42:33.300Z,7.10
2018-01-04T02:45:12.650Z,7.10
2018-01-04T02:47:40.177Z,7.07
2018-01-04T02:50:07.706Z,7.09
2018-01-04T02:52:35.229Z,7.03
2018-01-04T02:55:02.732Z,7.05
2018-01-04T02:57:30.250Z,7.11
2018-01-04T02:59:57.761Z,7.09
2018-01-04T03:02:25.261Z,7.07
2018-01-04T03:04:52.897Z,7.09
2018-01-04T03:07:20.401Z,7.14
2018-01-04T03:09:48.021Z,7.16
2018-01-04T03:12:15.578Z,7.12
2018-01-04T03:14:43.140Z,7.14
2018-01-04T03:17:10.655Z,7.17
2018-01-04T03:19:38.177Z,7.17
2018-01-04T03:22:11.290Z,7.21
2018-01-04T03:24:44.439Z,7.19
2018-01-04T03:27:17.545Z,7.19
2018-01-04T03:32:52.450Z,7.23
2018-01-04T03:35:25.560Z,7.17
2018-01-04T03:37:58.694Z,7.25
2018-01-04T03:40:31.944Z,7.26
2018-01-04T03:43:05.005Z,7.27
2018-01-04T03:45:38.063Z,7.27
2018-01-04T03:48:11.139Z,7.24
2018-01-04T03:50:44.411Z,7.25
2018-01-04T03:53:17.537Z,7.23
2018-01-04T03:55:50.657Z,7.24
2018-01-04T03:58:18.193Z,7.24
2018-01-04T04:00:51.240Z,7.26
2018-01-04T04:03:18.800Z,7.21
2018-01-04T04:05:52.020Z,7.25
2018-01-04T04:08:25.258Z,7.30
2018-01-04T04:10:52.837Z,7.29
2018-01-04T04:13:20.333Z,7.29
2018-01-04T04:15:47.881Z,7.33
2018-01-04T04:18:15.426Z,7.38
2018-01-04T04:20:42.984Z,7.39
2018-01-04T04:23:10.507Z,7.37
2018-01-04T04:25:38.048Z,7.38
2018-01-04T04:28:05.567Z,7.40
2018-01-04T04:30:33.073Z,7.37
2018-01-04T04:33:00.589Z,7.36
2018-01-04T04:35:28.097Z,7.35
2018-01-04T04:37:55.613Z,7.32
2018-01-04T04:40:23.158Z,7.31
2018-01-04T04:42:50.678Z,7.32
2018-01-04T04:45:18.202Z,7.24
2018-01-04T04:47:45.722Z,7.31
2018-01-04T04:50:13.220Z,7.32
2018-01-04T04:52:40.748Z,7.34
2018-01-04T04:55:08.251Z,7.33
2018-01-04T04:57:35.864Z,7.28
2018-01-04T05:00:03.375Z,7.29
2018-01-04T05:02:30.905Z,7.31
2018-01-04T05:04:58.412Z,7.32
2018-01-04T05:07:25.943Z,7.34
2018-01-04T05:09:53.453Z,7.30
2018-01-04T05:12:20.954Z,7.36
2018-01-04T05:14:48.474Z,7.32
2018-01-04T05:17:15.984Z,7.35
2018-01-04T05:19:43.508Z,7.32
2018-01-04T05:22:11.020Z,7.35
2018-01-04T05:24:38.568Z,7.32
2018-01-04T05:27:06.086Z,7.29
2018-01-04T05:29:33.600Z,7.35
2018-01-04T05:32:01.213Z,7.30
2018-01-04T05:34:28.732Z,7.27
2018-01-04T05:36:56.236Z,7.26
2018-01-04T05:39:23.749Z,7.19
2018-01-04T05:41:51.253Z,7.19
2018-01-04T05:44:18.761Z,7.11
2018-01-04T05:46:46.277Z,7.20
2018-01-04T05:49:13.785Z,7.11
2018-01-04T05:51:41.291Z,7.18
2018-01-04T05:54:08.831Z,7.12
2018-01-04T05:56:36.334Z,7.15
2018-01-04T05:59:03.852Z,7.14
2018-01-04T06:01:31.410Z,7.10
2018-01-04T06:03:58.917Z,7.08
2018-01-04T06:06:26.433Z,7.13
2018-01-04T06:08:53.954Z,7.13
2018-01-04T06:11:21.461Z,7.14
2018-01-04T06:13:48.970Z,7.16
2018-01-04T06:16:16.570Z,7.17
2018-01-04T06:18:44.078Z,7.21
2018-01-04T06:21:11.691Z,7.26
2018-01-04T06:23:39.206Z,7.20
2018-01-04T06:26:06.713Z,7.24
2018-01-04T06:28:34.219Z,7.25
2018-01-04T06:31:01.745Z,7.24
2018-01-04T06:33:29.273Z,7.27
2018-01-04T06:35:56.792Z,7.24
2018-01-04T06:38:24.328Z,7.25
2018-01-04T06:40:51.852Z,7.28
2018-01-04T06:43:19.357Z,7.29
2018-01-04T06:45:46.876Z,7.25
2018-01-04T06:48:14.385Z,7.27
2018-01-04T06:50:41.929Z,7.24
2018-01-04T06:53:09.457Z,7.28
2018-01-04T06:55:37.017Z,7.27
2018-01-04T06:58:04.578Z,7.25
2018-01-04T07:00:32.118Z,7.27
2018-01-04T07:02:59.693Z,7.28
2018-01-04T07:05:27.213Z,7.30
2018-01-04T07:07:54.730Z,7.31
2018-01-04T07:10:22.246Z,7.26
2018-01-04T07:12:49.808Z,7.30
2018-01-04T07:15:17.326Z,7.30
2018-01-04T07:17:44.838Z,7.28
2018-01-04T07:20:12.358Z,7.34
2018-01-04T07:22:39.960Z,7.35
2018-01-04T07:25:07.535Z,7.32
2018-01-04T07:27:35.094Z,7.31
2018-01-04T07:30:02.608Z,7.34
2018-01-04T07:32:30.124Z,7.33
2018-01-04T07:34:57.629Z,7.26
2018-01-04T07:37:25.138Z,7.31
2018-01-04T07:39:52.673Z,7.33
2018-01-04T07:42:20.176Z,7.29
2018-01-04T07:44:47.694Z,7.24
2018-01-04T07:47:15.232Z,7.23
2018-01-04T07:49:42.739Z,7.24
2018-01-04T07:52:10.249Z,7.24
2018-01-04T07:54:37.769Z,7.27
2018-01-04T07:57:05.287Z,7.23
2018-01-04T07:59:32.797Z,7.29
2018-01-04T08:02:00.304Z,7.31
2018-01-04T08:04:27.813Z,7.31
2018-01-04T08:06:55.334Z,7.35
2018-01-04T08:09:22.850Z,7.33
2018-01-04T08:11:50.426Z,7.33
2018-01-04T08:14:17.950Z,7.37
2018-01-04T08:16:45.572Z,7.43
2018-01-04T08:19:13.077Z,7.51
2018-01-04T08:21:40.590Z,7.51
2018-01-04T08:24:08.101Z,7.53
2018-01-04T08:26:35.707Z,7.58
2018-01-04T08:29:03.226Z,7.56
2018-01-04T08:31:30.734Z,7.57
2018-01-04T08:33:58.253Z,7.57
2018-01-04T08:36:25.774Z,7.56
2018-01-04T08:38:53.293Z,7.60
2018-01-04T08:41:20.802Z,7.60
2018-01-04T08:43:48.317Z,7.58
2018-01-04T08:46:15.888Z,7.64
2018-01-04T08:48:43.407Z,7.70
2018-01-04T08:51:10.923Z,7.73
2018-01-04T08:53:38.435Z,7.69
2018-01-04T08:56:05.984Z,7.65
2018-01-04T08:58:33.518Z,7.75
2018-01-04T09:01:01.028Z,7.79
2018-01-04T09:03:28.538Z,7.85
2018-01-04T09:05:56.050Z,8.04
2018-01-04T09:08:23.608Z,8.03
2018-01-04T09:10:51.138Z,8.02
2018-01-04T09:13:18.654Z,8.09
2018-01-04T09:15:46.185Z,8.10
2018-01-04T09:18:13.697Z,8.05
2018-01-04T09:20:41.302Z,8.11
2018-01-04T09:23:08.878Z,8.07
2018-01-04T09:25:36.394Z,8.18
2018-01-04T09:28:03.912Z,8.09
2018-01-04T09:30:31.456Z,8.08
2018-01-04T09:32:58.974Z,8.03
2018-01-04T09:35:26.504Z,8.06
2018-01-04T09:37:54.020Z,7.99
2018-01-04T09:40:21.592Z,8.01
2018-01-04T09:42:49.106Z,8.08
2018-01-04T09:45:16.642Z,8.16
2018-01-04T09:47:44.145Z,8.20
2018-01-04T09:50:11.654Z,8.22
2018-01-04T09:52:39.184Z,8.12
2018-01-04T09:55:06.701Z,8.15
2018-01-04T09:57:34.231Z,8.22
2018-01-04T10:00:01.745Z,8.29
2018-01-04T10:02:29.314Z,8.31
2018-01-04T10:04:57.570Z,8.41
2018-01-04T10:07:25.122Z,8.39
2018-01-04T10:09:52.646Z,8.59
2018-01-04T10:12:20.161Z,8.65
2018-01-04T10:14:47.669Z,8.76
2018-01-04T10:17:17.331Z,8.60
2018-01-04T10:19:44.923Z,8.63
2018-01-04T10:22:12.678Z,8.58
2018-01-04T10:24:40.870Z,8.52
2018-01-04T10:27:08.725Z,8.56
2018-01-04T10:29:36.300Z,8.50
2018-01-04T10:32:03.933Z,8.59
2018-01-04T10:34:31.501Z,8.76
2018-01-04T10:36:59.016Z,8.84
2018-01-04T10:39:26.525Z,8.94
2018-01-04T10:41:54.032Z,8.78
2018-01-04T10:44:21.556Z,8.80
2018-01-04T10:46:49.075Z,8.75
2018-01-04T10:49:16.601Z,8.78
2018-01-04T10:51:44.133Z,8.73
2018-01-04T10:54:11.637Z,8.74
2018-01-04T10:56:39.226Z,8.70
2018-01-04T10:59:06.793Z,8.83
2018-01-04T11:01:34.891Z,8.72
2018-01-04T11:04:03.165Z,8.73
2018-01-04T11:06:30.754Z,8.76
2018-01-04T11:08:58.893Z,8.76
2018-01-04T11:11:26.450Z,8.88
2018-01-04T11:13:54.044Z,8.78
2018-01-04T11:16:21.611Z,8.80
2018-01-04T11:18:49.235Z,8.79
2018-01-04T11:21:16.839Z,8.71
2018-01-04T11:23:44.395Z,8.75
2018-01-04T11:26:11.950Z,8.83
2018-01-04T11:28:39.541Z,8.85
2018-01-04T11:31:07.118Z,8.87
2018-01-04T11:33:34.689Z,8.78
2018-01-04T11:36:02.391Z,8.80
2018-01-04T11:38:29.980Z,8.93
2018-01-04T11:40:57.521Z,8.89
2018-01-04T11:43:25.088Z,8.88
2018-01-04T11:45:52.630Z,9.01
2018-01-04T11:48:20.206Z,8.94
2018-01-04T11:50:47.790Z,9.11
2018-01-04T11:53:15.312Z,9.15
2018-01-04T11:55:42.881Z,9.20
2018-01-04T11:58:10.409Z,9.10
2018-01-04T12:00:37.996Z,9.12
2018-01-04T12:05:33.267Z,9.09
2018-01-04T12:08:00.875Z,9.10
2018-01-04T12:10:28.439Z,9.00
2018-01-04T12:12:56.008Z,9.10
2018-01-04T12:15:23.548Z,9.08
2018-01-04T12:17:51.112Z,9.11
2018-01-04T12:20:18.700Z,9.07
2018-01-04T12:22:46.251Z,9.21
2018-01-04T12:25:13.916Z,9.19
2018-01-04T12:27:42.086Z,9.25
2018-01-04T12:30:09.727Z,9.07
2018-01-04T12:32:37.356Z,8.92
2018-01-04T12:35:04.980Z,8.93
2018-01-04T12:37:32.545Z,8.90
2018-01-04T12:40:00.100Z,8.89
2018-01-04T12:42:27.666Z,8.98
2018-01-04T12:44:55.448Z,9.00
2018-01-04T12:47:23.033Z,8.90
2018-01-04T12:49:50.581Z,8.71
2018-01-04T12:52:18.138Z,8.61
2018-01-04T12:54:45.704Z,8.61
2018-01-04T12:57:13.256Z,8.61
2018-01-04T12:59:40.854Z,8.48
2018-01-04T13:02:08.990Z,8.50
2018-01-04T13:04:36.567Z,8.43
2018-01-04T13:07:04.111Z,8.39
2018-01-04T13:09:31.811Z,8.41
2018-01-04T13:11:59.328Z,8.39
2018-01-04T13:14:26.856Z,8.37
2018-01-04T13:16:54.373Z,8.34
2018-01-04T13:19:21.888Z,8.35
2018-01-04T13:21:49.402Z,8.32
2018-01-04T13:24:16.925Z,8.28
2018-01-04T13:26:44.440Z,8.32
2018-01-04T13:29:11.950Z,8.29
2018-01-04T13:31:39.457Z,8.36
2018-01-04T13:34:06.985Z,8.40
2018-01-04T13:36:34.492Z,8.26
2018-01-04T13:39:02.087Z,8.35
2018-01-04T13:41:29.595Z,8.29
2018-01-04T13:43:57.117Z,8.34
2018-01-04T13:46:24.626Z,8.32
2018-01-04T13:48:52.141Z,8.40
2018-01-04T13:51:19.648Z,8.37
2018-01-04T13:53:47.157Z,8.41
2018-01-04T13:56:14.794Z,8.45
2018-01-04T13:58:42.310Z,8.48
2018-01-04T14:01:09.880Z,8.45
2018-01-04T14:03:37.474Z,8.36
2018-01-04T14:06:04.987Z,8.32
2018-01-04T14:08:32.500Z,8.39
2018-01-04T14:11:00.019Z,8.32
2018-01-04T14:13:27.559Z,8.32
2018-01-04T14:15:55.074Z,8.30
2018-01-04T14:18:22.624Z,8.21
2018-01-04T14:20:50.138Z,8.30
2018-01-04T14:23:17.654Z,8.20
2018-01-04T14:25:45.166Z,8.08
2018-01-04T14:28:12.698Z,8.01
2018-01-04T14:30:40.216Z,7.96
2018-01-04T14:33:07.736Z,7.94
2018-01-04T14:35:35.343Z,7.92
2018-01-04T14:38:02.853Z,7.91
2018-01-04T14:40:30.470Z,7.92
2018-01-04T14:42:57.982Z,7.88
2018-01-04T14:45:25.527Z,7.87
2018-01-04T14:47:53.201Z,7.87
2018-01-04T14:50:20.733Z,7.87
2018-01-04T14:52:48.317Z,7.88
2018-01-04T14:55:15.843Z,7.84
2018-01-04T14:57:43.354Z,7.83
2018-01-04T15:00:10.885Z,7.83
2018-01-04T15:02:38.390Z,7.82
2018-01-04T15:05:05.910Z,7.79
2018-01-04T15:07:33.449Z,7.79
2018-01-04T15:10:00.961Z,7.76
2018-01-04T15:12:28.464Z,7.78
2018-01-04T15:14:55.974Z,7.77
2018-01-04T15:17:23.540Z,7.77
2018-01-04T15:19:51.101Z,7.73
2018-01-04T15:22:18.673Z,7.73
2018-01-04T15:24:46.226Z,7.75
2018-01-04T15:27:13.785Z,7.75
2018-01-04T15:29:41.293Z,7.75
2018-01-04T15:32:08.817Z,7.77
2018-01-04T15:34:36.348Z,7.77
2018-01-04T15:37:03.866Z,7.74
2018-01-04T15:39:31.479Z,7.78
2018-01-04T15:41:58.989Z,7.73
2018-01-04T15:44:26.610Z,7.71
2018-01-04T15:46:54.113Z,7.73
2018-01-04T15:49:21.721Z,7.70
2018-01-04T15:51:49.229Z,7.74
2018-01-04T15:54:16.836Z,7.74
2018-01-04T15:56:44.365Z,7.68
2018-01-04T15:59:11.878Z,7.66
2018-01-04T16:01:39.394Z,7.69
2018-01-04T16:04:06.978Z,7.64
2018-01-04T16:06:34.490Z,7.65
2018-01-04T16:09:02.107Z,7.65
2018-01-04T16:11:29.627Z,7.59
2018-01-04T16:13:57.168Z,7.61
2018-01-04T16:16:24.787Z,7.65
2018-01-04T16:18:52.307Z,7.57
2018-01-04T16:21:19.838Z,7.59
2018-01-04T16:23:47.354Z,7.59
2018-01-04T16:26:14.882Z,7.52
2018-01-04T16:28:42.397Z,7.51
2018-01-04T16:31:09.905Z,7.54
2018-01-04T16:33:37.427Z,7.54
2018-01-04T16:36:04.953Z,7.49
2018-01-04T16:38:32.467Z,7.48
2018-01-04T16:40:59.977Z,7.42
2018-01-04T16:43:27.483Z,7.33
2018-01-04T16:45:54.989Z,7.33
2018-01-04T16:48:22.501Z,7.26
2018-01-04T16:50:50.014Z,7.28
2018-01-04T16:53:17.577Z,7.20
2018-01-04T16:55:45.091Z,7.21
2018-01-04T16:58:12.643Z,7.22
2018-01-04T17:00:40.197Z,7.18
2018-01-04T17:03:07.710Z,7.14
2018-01-04T17:05:35.270Z,7.15
2018-01-04T17:08:02.785Z,7.12
2018-01-04T17:10:30.318Z,7.05
2018-01-04T17:12:57.843Z,7.04
2018-01-04T17:15:25.361Z,6.98
2018-01-04T17:17:52.875Z,6.98
2018-01-04T17:20:20.396Z,6.97
2018-01-04T17:22:47.909Z,6.96
2018-01-04T17:25:15.550Z,6.99
2018-01-04T17:27:43.067Z,6.98
2018-01-04T17:30:10.573Z,6.99
2018-01-04T17:32:38.117Z,7.04
2018-01-04T17:35:05.688Z,7.04
2018-01-04T17:37:33.237Z,7.04
2018-01-04T17:40:00.797Z,7.02
2018-01-04T17:42:28.326Z,7.05
2018-01-04T17:44:55.849Z,7.05
2018-01-04T17:47:23.359Z,7.07
2018-01-04T17:49:50.873Z,7.08
2018-01-04T17:52:18.405Z,7.08
2018-01-04T17:54:45.909Z,7.09
2018-01-04T17:57:13.421Z,7.10
2018-01-04T17:59:40.929Z,7.07
2018-01-04T18:02:08.457Z,7.10
2018-01-04T18:04:35.998Z,7.10
2018-01-04T18:07:03.505Z,7.10
2018-01-04T18:09:31.100Z,7.12
2018-01-04T18:11:58.613Z,7.11
2018-01-04T18:14:26.121Z,7.11
2018-01-04T18:16:53.682Z,7.13
2018-01-04T18:19:21.191Z,7.14
2018-01-04T18:21:48.711Z,7.13
2018-01-04T18:24:16.226Z,7.15
2018-01-04T18:26:43.747Z,7.14
2018-01-04T18:29:11.262Z,7.13
2018-01-04T18:31:38.786Z,7.14
2018-01-04T18:34:06.304Z,7.17
2018-01-04T18:36:33.817Z,7.16
2018-01-04T18:39:01.339Z,7.17
2018-01-04T18:41:28.854Z,7.13
2018-01-04T18:43:56.410Z,7.17
2018-01-04T18:46:23.989Z,7.24
2018-01-04T18:48:51.575Z,7.23
2018-01-04T18:51:19.087Z,7.17
2018-01-04T18:53:46.609Z,7.21
2018-01-04T18:56:14.245Z,7.24
2018-01-04T18:58:41.817Z,7.18
2018-01-04T19:01:09.355Z,7.15
2018-01-04T19:03:36.860Z,7.23
2018-01-04T19:06:04.366Z,7.22
2018-01-04T19:08:31.873Z,7.21
2018-01-04T19:10:59.380Z,7.21
2018-01-04T19:13:26.920Z,7.21
2018-01-04T19:15:54.508Z,7.18
2018-01-04T19:18:22.137Z,7.22
2018-01-04T19:20:49.674Z,7.24
2018-01-04T19:23:17.380Z,7.24
2018-01-04T19:25:44.900Z,7.26
2018-01-04T19:28:12.449Z,7.27
2018-01-04T19:30:40.009Z,7.28
2018-01-04T19:33:07.531Z,7.28
2018-01-04T19:35:35.062Z,7.28
2018-01-04T19:38:02.569Z,7.29
2018-01-04T19:40:30.082Z,7.30
2018-01-04T19:42:57.611Z,7.30
2018-01-04T19:45:25.124Z,7.33
2018-01-04T19:47:52.646Z,7.30
2018-01-04T19:50:20.149Z,7.25
2018-01-04T19:52:47.652Z,7.30
2018-01-04T19:55:15.168Z,7.32
2018-01-04T19:57:42.677Z,7.31
2018-01-04T20:00:10.215Z,7.27
2018-01-04T20:02:37.739Z,7.19
2018-01-04T20:05:05.265Z,7.27
2018-01-04T20:07:32.782Z,7.26
2018-01-04T20:10:00.288Z,7.28
2018-01-04T20:12:27.805Z,7.25
2018-01-04T20:14:55.315Z,7.23
2018-01-04T20:17:22.826Z,7.17
2018-01-04T20:19:50.347Z,7.23
2018-01-04T20:22:17.859Z,7.23
2018-01-04T20:24:45.368Z,7.22
2018-01-04T20:27:12.886Z,7.16
2018-01-04T20:29:40.390Z,7.21
2018-01-04T20:32:07.902Z,7.19
2018-01-04T20:34:35.410Z,7.14
2018-01-04T20:37:02.923Z,7.15
2018-01-04T20:39:30.439Z,7.18
2018-01-04T20:41:58.000Z,7.17
2018-01-04T20:44:25.521Z,7.14
2018-01-04T20:46:53.029Z,7.17
2018-01-04T20:49:20.533Z,7.11
2018-01-04T20:51:48.048Z,7.22
2018-01-04T20:54:15.579Z,7.07
2018-01-04T20:56:43.095Z,7.03
2018-01-04T20:59:10.612Z,7.07
2018-01-04T21:01:38.138Z,7.07
2018-01-04T21:04:05.656Z,6.98
2018-01-04T21:06:33.152Z,6.93
2018-01-04T21:09:00.656Z,6.90
2018-01-04T21:11:28.179Z,6.90
2018-01-04T21:13:55.684Z,6.91
2018-01-04T21:16:23.202Z,6.84
2018-01-04T21:18:50.713Z,6.75
2018-01-04T21:21:18.230Z,6.74
2018-01-04T21:23:45.742Z,6.70
2018-01-04T21:26:13.249Z,6.76
2018-01-04T21:28:40.778Z,6.70
2018-01-04T21:31:08.335Z,6.75
2018-01-04T21:33:35.852Z,6.71
2018-01-04T21:36:03.363Z,6.73
2018-01-04T21:38:30.874Z,6.67
2018-01-04T21:40:58.386Z,6.66
2018-01-04T21:43:25.903Z,6.76
2018-01-04T21:45:53.431Z,6.77
2018-01-04T21:48:20.945Z,6.87
2018-01-04T21:50:48.459Z,6.82
2018-01-04T21:53:15.964Z,6.86
2018-01-04T21:55:43.465Z,6.92
2018-01-04T21:58:10.981Z,6.90
2018-01-04T22:00:38.487Z,6.88
2018-01-04T22:03:06.009Z,6.89
2018-01-04T22:05:33.529Z,6.91
2018-01-04T22:08:01.039Z,6.98
2018-01-04T22:10:28.556Z,6.98
2018-01-04T22:12:56.065Z,7.04
2018-01-04T22:15:23.577Z,7.06
2018-01-04T22:17:51.094Z,7.03
2018-01-04T22:20:18.609Z,7.03
2018-01-04T22:22:46.116Z,7.09
2018-01-04T22:25:13.635Z,7.11
2018-01-04T22:27:41.141Z,7.08
2018-01-04T22:30:08.653Z,7.13
2018-01-04T22:32:36.170Z,7.17
2018-01-04T22:35:03.673Z,7.17
2018-01-04T22:37:31.169Z,7.17
2018-01-04T22:39:58.676Z,7.16
2018-01-04T22:42:26.181Z,7.22
2018-01-04T22:44:53.684Z,7.21
2018-01-04T22:47:21.199Z,7.25
2018-01-04T22:49:48.726Z,7.24
2018-01-04T22:52:16.236Z,7.28
2018-01-04T22:54:43.742Z,7.26
2018-01-04T22:57:11.306Z,7.32
2018-01-04T22:59:38.780Z,7.34
2018-01-04T23:02:06.295Z,7.32
2018-01-04T23:04:33.801Z,7.36
2018-01-04T23:07:01.326Z,7.38
2018-01-04T23:09:28.866Z,7.36
2018-01-04T23:11:56.405Z,7.41
2018-01-04T23:14:23.920Z,7.45
2018-01-04T23:16:51.481Z,7.47
2018-01-04T23:19:19.069Z,7.45
2018-01-04T23:21:46.597Z,7.43
2018-01-04T23:24:14.101Z,7.46
2018-01-04T23:26:41.609Z,7.51
2018-01-04T23:29:09.123Z,7.54
2018-01-04T23:31:36.634Z,7.53
2018-01-04T23:34:04.139Z,7.53
2018-01-04T23:36:31.654Z,7.55
2018-01-04T23:38:59.167Z,7.57
2018-01-04T23:41:26.721Z,7.60
2018-01-04T23:43:54.231Z,7.63
2018-01-04T23:46:21.742Z,7.67
2018-01-04T23:48:49.247Z,7.66
2018-01-04T23:51:16.748Z,7.68
2018-01-04T23:53:44.253Z,7.72
2018-01-04T23:56:11.757Z,7.72
2018-01-04T23:58:39.260Z,7.75
